sensor_id;sensor_type;location;lat;lon;timestamp;temperature;humidity
23233;DHT22;11785;49.500;8.288;2023-04-24T00:00:17;10.90;94.30
23233;DHT22;11785;49.500;8.288;2023-04-24T00:02:44;10.80;95.20
23233;DHT22;11785;49.500;8.288;2023-04-24T00:05:14;10.70;95.90
23233;DHT22;11785;49.500;8.288;2023-04-24T00:07:40;10.70;96.20
23233;DHT22;11785;49.500;8.288;2023-04-24T00:10:07;10.60;96.80
23233;DHT22;11785;49.500;8.288;2023-04-24T00:12:33;10.70;96.70
23233;DHT22;11785;49.500;8.288;2023-04-24T00:14:59;10.70;96.80
23233;DHT22;11785;49.500;8.288;2023-04-24T00:17:24;10.70;96.70
23233;DHT22;11785;49.500;8.288;2023-04-24T00:19:50;10.80;96.40
23233;DHT22;11785;49.500;8.288;2023-04-24T00:22:17;10.90;96.10
23233;DHT22;11785;49.500;8.288;2023-04-24T00:24:43;10.90;95.80
23233;DHT22;11785;49.500;8.288;2023-04-24T00:27:08;10.90;96.00
23233;DHT22;11785;49.500;8.288;2023-04-24T00:29:34;10.90;95.70
23233;DHT22;11785;49.500;8.288;2023-04-24T00:32:00;11.00;95.00
23233;DHT22;11785;49.500;8.288;2023-04-24T00:34:25;11.00;94.90
23233;DHT22;11785;49.500;8.288;2023-04-24T00:36:51;11.10;94.50
23233;DHT22;11785;49.500;8.288;2023-04-24T00:39:18;11.10;94.10
23233;DHT22;11785;49.500;8.288;2023-04-24T00:41:44;11.10;94.00
23233;DHT22;11785;49.500;8.288;2023-04-24T00:44:10;11.10;94.10
23233;DHT22;11785;49.500;8.288;2023-04-24T00:46:36;11.10;94.00
23233;DHT22;11785;49.500;8.288;2023-04-24T00:49:02;11.10;94.00
23233;DHT22;11785;49.500;8.288;2023-04-24T00:51:29;11.20;93.70
23233;DHT22;11785;49.500;8.288;2023-04-24T00:57:44;11.20;93.20
23233;DHT22;11785;49.500;8.288;2023-04-24T01:00:10;11.20;93.10
23233;DHT22;11785;49.500;8.288;2023-04-24T01:02:42;11.10;93.60
23233;DHT22;11785;49.500;8.288;2023-04-24T01:05:12;11.00;94.00
23233;DHT22;11785;49.500;8.288;2023-04-24T01:07:39;11.00;94.20
23233;DHT22;11785;49.500;8.288;2023-04-24T01:10:07;11.00;94.20
23233;DHT22;11785;49.500;8.288;2023-04-24T01:12:33;11.00;94.10
23233;DHT22;11785;49.500;8.288;2023-04-24T01:14:58;11.10;93.80
23233;DHT22;11785;49.500;8.288;2023-04-24T01:17:24;11.10;93.80
23233;DHT22;11785;49.500;8.288;2023-04-24T01:19:50;11.20;93.40
23233;DHT22;11785;49.500;8.288;2023-04-24T01:22:19;11.20;93.40
23233;DHT22;11785;49.500;8.288;2023-04-24T01:24:46;11.20;93.40
23233;DHT22;11785;49.500;8.288;2023-04-24T01:27:12;11.20;93.60
23233;DHT22;11785;49.500;8.288;2023-04-24T01:29:38;11.20;93.50
23233;DHT22;11785;49.500;8.288;2023-04-24T01:32:05;11.30;93.30
23233;DHT22;11785;49.500;8.288;2023-04-24T01:34:31;11.30;93.30
23233;DHT22;11785;49.500;8.288;2023-04-24T01:36:56;11.30;93.40
23233;DHT22;11785;49.500;8.288;2023-04-24T01:39:22;11.30;93.40
23233;DHT22;11785;49.500;8.288;2023-04-24T01:41:51;11.30;93.40
23233;DHT22;11785;49.500;8.288;2023-04-24T01:44:18;11.30;93.40
23233;DHT22;11785;49.500;8.288;2023-04-24T01:46:44;11.30;93.40
23233;DHT22;11785;49.500;8.288;2023-04-24T01:49:09;11.30;93.40
23233;DHT22;11785;49.500;8.288;2023-04-24T01:51:35;11.40;93.20
23233;DHT22;11785;49.500;8.288;2023-04-24T01:54:01;11.40;93.20
23233;DHT22;11785;49.500;8.288;2023-04-24T01:56:29;11.40;93.40
23233;DHT22;11785;49.500;8.288;2023-04-24T01:58:55;11.40;93.50
23233;DHT22;11785;49.500;8.288;2023-04-24T02:01:21;11.40;93.70
23233;DHT22;11785;49.500;8.288;2023-04-24T02:03:48;11.40;94.00
23233;DHT22;11785;49.500;8.288;2023-04-24T02:06:14;11.40;94.70
23233;DHT22;11785;49.500;8.288;2023-04-24T02:08:39;11.30;95.70
23233;DHT22;11785;49.500;8.288;2023-04-24T02:11:05;11.20;96.50
23233;DHT22;11785;49.500;8.288;2023-04-24T02:13:31;11.00;98.50
23233;DHT22;11785;49.500;8.288;2023-04-24T02:15:58;10.90;99.90
23233;DHT22;11785;49.500;8.288;2023-04-24T02:18:24;10.90;99.90
23233;DHT22;11785;49.500;8.288;2023-04-24T02:20:49;10.80;99.90
23233;DHT22;11785;49.500;8.288;2023-04-24T02:23:15;10.70;99.90
23233;DHT22;11785;49.500;8.288;2023-04-24T02:25:40;10.50;99.90
23233;DHT22;11785;49.500;8.288;2023-04-24T02:28:06;10.40;99.90
23233;DHT22;11785;49.500;8.288;2023-04-24T02:30:32;10.40;99.90
23233;DHT22;11785;49.500;8.288;2023-04-24T02:32:57;10.30;99.90
23233;DHT22;11785;49.500;8.288;2023-04-24T02:35:23;10.20;99.90
23233;DHT22;11785;49.500;8.288;2023-04-24T02:37:48;10.20;99.90
23233;DHT22;11785;49.500;8.288;2023-04-24T02:40:14;10.10;99.90
23233;DHT22;11785;49.500;8.288;2023-04-24T02:42:39;10.10;99.90
23233;DHT22;11785;49.500;8.288;2023-04-24T02:45:05;10.00;99.90
23233;DHT22;11785;49.500;8.288;2023-04-24T02:47:31;10.00;99.90
23233;DHT22;11785;49.500;8.288;2023-04-24T02:49:57;10.00;99.90
23233;DHT22;11785;49.500;8.288;2023-04-24T02:52:22;10.00;99.90
23233;DHT22;11785;49.500;8.288;2023-04-24T02:54:48;9.90;99.90
23233;DHT22;11785;49.500;8.288;2023-04-24T02:57:13;9.90;99.90
23233;DHT22;11785;49.500;8.288;2023-04-24T02:59:39;9.90;99.90
23233;DHT22;11785;49.500;8.288;2023-04-24T03:02:05;9.80;99.90
23233;DHT22;11785;49.500;8.288;2023-04-24T03:04:31;9.80;99.90
23233;DHT22;11785;49.500;8.288;2023-04-24T03:06:57;9.80;99.90
23233;DHT22;11785;49.500;8.288;2023-04-24T03:09:23;9.70;99.90
23233;DHT22;11785;49.500;8.288;2023-04-24T03:11:49;9.70;99.90
23233;DHT22;11785;49.500;8.288;2023-04-24T03:14:15;9.60;99.90
23233;DHT22;11785;49.500;8.288;2023-04-24T03:16:40;9.60;99.90
23233;DHT22;11785;49.500;8.288;2023-04-24T03:19:06;9.50;99.90
23233;DHT22;11785;49.500;8.288;2023-04-24T03:21:31;9.50;99.90
23233;DHT22;11785;49.500;8.288;2023-04-24T03:23:57;9.40;99.90
23233;DHT22;11785;49.500;8.288;2023-04-24T03:26:23;9.40;99.90
23233;DHT22;11785;49.500;8.288;2023-04-24T03:28:48;9.30;99.90
23233;DHT22;11785;49.500;8.288;2023-04-24T03:31:14;9.30;99.90
23233;DHT22;11785;49.500;8.288;2023-04-24T03:33:40;9.30;99.90
23233;DHT22;11785;49.500;8.288;2023-04-24T03:36:06;9.20;99.90
23233;DHT22;11785;49.500;8.288;2023-04-24T03:38:32;9.10;99.90
23233;DHT22;11785;49.500;8.288;2023-04-24T03:40:57;9.10;99.90
23233;DHT22;11785;49.500;8.288;2023-04-24T03:43:23;9.10;99.90
23233;DHT22;11785;49.500;8.288;2023-04-24T03:45:48;9.10;99.90
23233;DHT22;11785;49.500;8.288;2023-04-24T03:48:14;9.00;99.90
23233;DHT22;11785;49.500;8.288;2023-04-24T03:50:40;9.00;99.90
23233;DHT22;11785;49.500;8.288;2023-04-24T03:53:05;9.00;99.90
23233;DHT22;11785;49.500;8.288;2023-04-24T03:55:31;9.00;99.90
23233;DHT22;11785;49.500;8.288;2023-04-24T03:57:57;9.00;99.90
23233;DHT22;11785;49.500;8.288;2023-04-24T04:00:23;8.90;99.90
23233;DHT22;11785;49.500;8.288;2023-04-24T04:02:48;8.90;99.90
23233;DHT22;11785;49.500;8.288;2023-04-24T04:05:14;8.90;99.90
23233;DHT22;11785;49.500;8.288;2023-04-24T04:07:39;8.80;99.90
23233;DHT22;11785;49.500;8.288;2023-04-24T04:10:05;8.70;99.90
23233;DHT22;11785;49.500;8.288;2023-04-24T04:12:32;8.70;99.90
23233;DHT22;11785;49.500;8.288;2023-04-24T04:14:58;8.70;99.90
23233;DHT22;11785;49.500;8.288;2023-04-24T04:17:23;8.70;99.90
23233;DHT22;11785;49.500;8.288;2023-04-24T04:19:49;8.70;99.90
23233;DHT22;11785;49.500;8.288;2023-04-24T04:22:14;8.60;99.90
23233;DHT22;11785;49.500;8.288;2023-04-24T04:24:40;8.60;99.90
23233;DHT22;11785;49.500;8.288;2023-04-24T04:27:06;8.70;99.90
23233;DHT22;11785;49.500;8.288;2023-04-24T04:29:32;8.70;99.90
23233;DHT22;11785;49.500;8.288;2023-04-24T04:31:58;8.60;99.90
23233;DHT22;11785;49.500;8.288;2023-04-24T04:34:24;8.60;99.90
23233;DHT22;11785;49.500;8.288;2023-04-24T04:36:49;8.60;99.90
23233;DHT22;11785;49.500;8.288;2023-04-24T04:39:15;8.60;99.90
23233;DHT22;11785;49.500;8.288;2023-04-24T04:41:42;8.70;99.90
23233;DHT22;11785;49.500;8.288;2023-04-24T04:44:07;8.70;99.90
23233;DHT22;11785;49.500;8.288;2023-04-24T04:46:34;8.80;99.90
23233;DHT22;11785;49.500;8.288;2023-04-24T04:49:01;8.80;99.90
23233;DHT22;11785;49.500;8.288;2023-04-24T04:51:27;8.90;99.90
23233;DHT22;11785;49.500;8.288;2023-04-24T04:53:53;8.90;99.90
23233;DHT22;11785;49.500;8.288;2023-04-24T04:56:18;9.00;99.90
23233;DHT22;11785;49.500;8.288;2023-04-24T04:58:44;9.10;99.90
23233;DHT22;11785;49.500;8.288;2023-04-24T05:01:09;9.20;99.90
23233;DHT22;11785;49.500;8.288;2023-04-24T05:03:35;9.30;99.90
23233;DHT22;11785;49.500;8.288;2023-04-24T05:06:01;9.40;99.90
23233;DHT22;11785;49.500;8.288;2023-04-24T05:08:27;9.50;99.90
23233;DHT22;11785;49.500;8.288;2023-04-24T05:10:53;9.70;99.30
23233;DHT22;11785;49.500;8.288;2023-04-24T05:13:18;9.80;97.50
23233;DHT22;11785;49.500;8.288;2023-04-24T05:15:44;9.90;95.00
23233;DHT22;11785;49.500;8.288;2023-04-24T05:18:10;9.90;95.00
23233;DHT22;11785;49.500;8.288;2023-04-24T05:20:35;9.80;95.50
23233;DHT22;11785;49.500;8.288;2023-04-24T05:23:01;9.80;95.50
23233;DHT22;11785;49.500;8.288;2023-04-24T05:25:27;9.70;96.40
23233;DHT22;11785;49.500;8.288;2023-04-24T05:27:52;9.70;97.50
23233;DHT22;11785;49.500;8.288;2023-04-24T05:30:19;9.60;98.40
23233;DHT22;11785;49.500;8.288;2023-04-24T05:32:45;9.60;98.00
23233;DHT22;11785;49.500;8.288;2023-04-24T05:35:11;9.70;98.60
23233;DHT22;11785;49.500;8.288;2023-04-24T05:37:37;9.80;97.30
23233;DHT22;11785;49.500;8.288;2023-04-24T05:40:03;9.90;96.90
23233;DHT22;11785;49.500;8.288;2023-04-24T05:42:30;10.00;95.90
23233;DHT22;11785;49.500;8.288;2023-04-24T05:44:56;10.10;96.00
23233;DHT22;11785;49.500;8.288;2023-04-24T05:47:21;10.00;96.20
23233;DHT22;11785;49.500;8.288;2023-04-24T05:49:47;10.00;96.50
23233;DHT22;11785;49.500;8.288;2023-04-24T05:52:13;9.90;97.10
23233;DHT22;11785;49.500;8.288;2023-04-24T05:54:38;9.90;97.10
23233;DHT22;11785;49.500;8.288;2023-04-24T05:57:04;10.00;97.20
23233;DHT22;11785;49.500;8.288;2023-04-24T05:59:37;10.10;97.00
23233;DHT22;11785;49.500;8.288;2023-04-24T06:02:04;10.30;96.10
23233;DHT22;11785;49.500;8.288;2023-04-24T06:04:29;10.30;95.80
23233;DHT22;11785;49.500;8.288;2023-04-24T06:06:55;10.40;95.20
23233;DHT22;11785;49.500;8.288;2023-04-24T06:09:24;10.50;95.70
23233;DHT22;11785;49.500;8.288;2023-04-24T06:11:50;10.60;95.00
23233;DHT22;11785;49.500;8.288;2023-04-24T06:14:19;10.60;94.70
23233;DHT22;11785;49.500;8.288;2023-04-24T06:16:45;10.60;94.80
23233;DHT22;11785;49.500;8.288;2023-04-24T06:19:11;10.60;95.10
23233;DHT22;11785;49.500;8.288;2023-04-24T06:21:36;10.60;94.90
23233;DHT22;11785;49.500;8.288;2023-04-24T06:24:02;10.50;96.10
23233;DHT22;11785;49.500;8.288;2023-04-24T06:26:29;10.40;96.40
23233;DHT22;11785;49.500;8.288;2023-04-24T06:28:54;10.30;96.90
23233;DHT22;11785;49.500;8.288;2023-04-24T06:31:20;10.30;97.20
23233;DHT22;11785;49.500;8.288;2023-04-24T06:33:46;10.30;97.60
23233;DHT22;11785;49.500;8.288;2023-04-24T06:36:12;10.30;97.90
23233;DHT22;11785;49.500;8.288;2023-04-24T06:38:37;10.30;97.90
23233;DHT22;11785;49.500;8.288;2023-04-24T06:41:03;10.40;97.80
23233;DHT22;11785;49.500;8.288;2023-04-24T06:43:31;10.30;97.90
23233;DHT22;11785;49.500;8.288;2023-04-24T06:45:57;10.20;98.70
23233;DHT22;11785;49.500;8.288;2023-04-24T06:48:24;10.10;99.70
23233;DHT22;11785;49.500;8.288;2023-04-24T06:50:50;10.20;99.70
23233;DHT22;11785;49.500;8.288;2023-04-24T06:53:16;10.30;99.90
23233;DHT22;11785;49.500;8.288;2023-04-24T06:55:41;10.50;99.90
23233;DHT22;11785;49.500;8.288;2023-04-24T06:58:08;10.60;98.40
23233;DHT22;11785;49.500;8.288;2023-04-24T07:00:34;10.80;97.40
23233;DHT22;11785;49.500;8.288;2023-04-24T07:03:00;11.00;94.80
23233;DHT22;11785;49.500;8.288;2023-04-24T07:05:25;11.10;93.30
23233;DHT22;11785;49.500;8.288;2023-04-24T07:07:51;11.20;92.70
23233;DHT22;11785;49.500;8.288;2023-04-24T07:10:17;11.40;91.50
23233;DHT22;11785;49.500;8.288;2023-04-24T07:12:42;11.40;90.20
23233;DHT22;11785;49.500;8.288;2023-04-24T07:15:08;11.60;89.10
23233;DHT22;11785;49.500;8.288;2023-04-24T07:17:34;11.70;87.30
23233;DHT22;11785;49.500;8.288;2023-04-24T07:20:00;11.50;85.50
23233;DHT22;11785;49.500;8.288;2023-04-24T07:22:26;11.50;86.80
23233;DHT22;11785;49.500;8.288;2023-04-24T07:24:52;11.60;85.60
23233;DHT22;11785;49.500;8.288;2023-04-24T07:27:17;11.70;85.20
23233;DHT22;11785;49.500;8.288;2023-04-24T07:29:43;12.00;81.10
23233;DHT22;11785;49.500;8.288;2023-04-24T07:32:09;12.30;75.30
23233;DHT22;11785;49.500;8.288;2023-04-24T07:34:34;12.50;71.50
23233;DHT22;11785;49.500;8.288;2023-04-24T07:37:00;12.40;72.10
23233;DHT22;11785;49.500;8.288;2023-04-24T07:39:27;11.80;73.90
23233;DHT22;11785;49.500;8.288;2023-04-24T07:41:53;11.60;76.90
23233;DHT22;11785;49.500;8.288;2023-04-24T07:44:18;11.50;75.10
23233;DHT22;11785;49.500;8.288;2023-04-24T07:46:44;11.60;76.10
23233;DHT22;11785;49.500;8.288;2023-04-24T07:49:10;11.70;74.80
23233;DHT22;11785;49.500;8.288;2023-04-24T07:51:35;11.80;74.80
23233;DHT22;11785;49.500;8.288;2023-04-24T07:54:05;12.00;72.70
23233;DHT22;11785;49.500;8.288;2023-04-24T07:56:33;12.10;67.30
23233;DHT22;11785;49.500;8.288;2023-04-24T07:58:59;12.50;66.10
23233;DHT22;11785;49.500;8.288;2023-04-24T08:01:26;12.90;63.50
23233;DHT22;11785;49.500;8.288;2023-04-24T08:03:52;12.90;59.90
23233;DHT22;11785;49.500;8.288;2023-04-24T08:06:17;13.00;59.90
23233;DHT22;11785;49.500;8.288;2023-04-24T08:08:43;13.10;59.70
23233;DHT22;11785;49.500;8.288;2023-04-24T08:11:09;13.00;59.80
23233;DHT22;11785;49.500;8.288;2023-04-24T08:13:34;12.80;59.70
23233;DHT22;11785;49.500;8.288;2023-04-24T08:16:00;12.70;59.80
23233;DHT22;11785;49.500;8.288;2023-04-24T08:18:26;12.50;59.90
23233;DHT22;11785;49.500;8.288;2023-04-24T08:20:51;12.50;59.90
23233;DHT22;11785;49.500;8.288;2023-04-24T08:23:17;12.80;59.90
23233;DHT22;11785;49.500;8.288;2023-04-24T08:25:42;12.90;59.70
23233;DHT22;11785;49.500;8.288;2023-04-24T08:28:09;13.10;59.70
23233;DHT22;11785;49.500;8.288;2023-04-24T08:30:35;13.10;59.60
23233;DHT22;11785;49.500;8.288;2023-04-24T08:33:00;13.10;59.70
23233;DHT22;11785;49.500;8.288;2023-04-24T08:35:26;13.20;59.60
23233;DHT22;11785;49.500;8.288;2023-04-24T08:37:52;13.20;59.60
23233;DHT22;11785;49.500;8.288;2023-04-24T08:40:23;13.40;59.60
23233;DHT22;11785;49.500;8.288;2023-04-24T08:42:54;13.30;59.60
23233;DHT22;11785;49.500;8.288;2023-04-24T08:45:21;13.20;59.60
23233;DHT22;11785;49.500;8.288;2023-04-24T08:47:47;13.10;59.70
23233;DHT22;11785;49.500;8.288;2023-04-24T08:50:13;13.10;59.70
23233;DHT22;11785;49.500;8.288;2023-04-24T08:52:38;13.00;59.60
23233;DHT22;11785;49.500;8.288;2023-04-24T08:55:05;12.70;59.70
23233;DHT22;11785;49.500;8.288;2023-04-24T08:57:31;12.60;59.80
23233;DHT22;11785;49.500;8.288;2023-04-24T08:59:58;12.60;59.80
23233;DHT22;11785;49.500;8.288;2023-04-24T09:02:25;12.60;59.80
23233;DHT22;11785;49.500;8.288;2023-04-24T09:04:51;12.80;59.80
23233;DHT22;11785;49.500;8.288;2023-04-24T09:07:18;12.70;59.70
23233;DHT22;11785;49.500;8.288;2023-04-24T09:09:45;12.60;59.80
23233;DHT22;11785;49.500;8.288;2023-04-24T09:12:11;12.90;59.70
23233;DHT22;11785;49.500;8.288;2023-04-24T09:14:37;13.20;59.60
23233;DHT22;11785;49.500;8.288;2023-04-24T09:17:07;13.10;59.60
23233;DHT22;11785;49.500;8.288;2023-04-24T09:19:33;13.10;59.60
23233;DHT22;11785;49.500;8.288;2023-04-24T09:21:58;13.20;59.60
23233;DHT22;11785;49.500;8.288;2023-04-24T09:24:24;13.60;59.50
23233;DHT22;11785;49.500;8.288;2023-04-24T09:26:57;13.70;59.40
23233;DHT22;11785;49.500;8.288;2023-04-24T09:29:24;13.80;59.40
23233;DHT22;11785;49.500;8.288;2023-04-24T09:31:50;14.10;59.40
23233;DHT22;11785;49.500;8.288;2023-04-24T09:34:21;14.40;59.30
23233;DHT22;11785;49.500;8.288;2023-04-24T09:36:48;14.30;59.20
23233;DHT22;11785;49.500;8.288;2023-04-24T09:39:15;14.60;59.20
23233;DHT22;11785;49.500;8.288;2023-04-24T09:41:52;14.20;59.30
23233;DHT22;11785;49.500;8.288;2023-04-24T09:44:19;14.30;59.20
23233;DHT22;11785;49.500;8.288;2023-04-24T09:46:56;14.30;59.20
23233;DHT22;11785;49.500;8.288;2023-04-24T09:49:29;14.30;59.20
23233;DHT22;11785;49.500;8.288;2023-04-24T09:52:11;14.30;59.20
23233;DHT22;11785;49.500;8.288;2023-04-24T09:54:37;14.40;59.20
23233;DHT22;11785;49.500;8.288;2023-04-24T09:57:03;14.30;59.20
23233;DHT22;11785;49.500;8.288;2023-04-24T09:59:29;14.20;59.30
23233;DHT22;11785;49.500;8.288;2023-04-24T10:01:55;14.10;59.20
23233;DHT22;11785;49.500;8.288;2023-04-24T10:04:23;13.90;59.30
23233;DHT22;11785;49.500;8.288;2023-04-24T10:06:50;13.50;59.40
23233;DHT22;11785;49.500;8.288;2023-04-24T10:09:18;13.50;59.40
23233;DHT22;11785;49.500;8.288;2023-04-24T10:11:46;13.50;59.40
23233;DHT22;11785;49.500;8.288;2023-04-24T10:14:13;13.70;59.40
23233;DHT22;11785;49.500;8.288;2023-04-24T10:16:40;13.80;59.30
23233;DHT22;11785;49.500;8.288;2023-04-24T10:19:06;14.00;59.30
23233;DHT22;11785;49.500;8.288;2023-04-24T10:21:32;13.90;59.30
23233;DHT22;11785;49.500;8.288;2023-04-24T10:23:59;14.00;59.30
23233;DHT22;11785;49.500;8.288;2023-04-24T10:26:28;14.10;59.20
23233;DHT22;11785;49.500;8.288;2023-04-24T10:28:57;14.50;59.20
23233;DHT22;11785;49.500;8.288;2023-04-24T10:31:23;14.90;59.00
23233;DHT22;11785;49.500;8.288;2023-04-24T10:33:50;14.90;59.00
23233;DHT22;11785;49.500;8.288;2023-04-24T10:36:18;14.80;59.00
23233;DHT22;11785;49.500;8.288;2023-04-24T10:38:46;14.80;59.10
23233;DHT22;11785;49.500;8.288;2023-04-24T10:41:13;14.70;59.00
23233;DHT22;11785;49.500;8.288;2023-04-24T10:43:45;14.20;59.20
23233;DHT22;11785;49.500;8.288;2023-04-24T10:46:18;14.40;59.20
23233;DHT22;11785;49.500;8.288;2023-04-24T10:48:52;14.70;59.10
23233;DHT22;11785;49.500;8.288;2023-04-24T10:51:25;14.90;59.00
23233;DHT22;11785;49.500;8.288;2023-04-24T10:59:44;15.30;58.90
23233;DHT22;11785;49.500;8.288;2023-04-24T11:02:09;15.40;58.80
23233;DHT22;11785;49.500;8.288;2023-04-24T11:04:36;15.50;58.80
23233;DHT22;11785;49.500;8.288;2023-04-24T11:07:03;15.20;58.90
23233;DHT22;11785;49.500;8.288;2023-04-24T11:09:31;14.70;59.00
23233;DHT22;11785;49.500;8.288;2023-04-24T11:12:05;14.30;59.10
23233;DHT22;11785;49.500;8.288;2023-04-24T11:17:35;14.20;59.00
23233;DHT22;11785;49.500;8.288;2023-04-24T11:20:08;14.20;59.10
23233;DHT22;11785;49.500;8.288;2023-04-24T11:22:36;14.40;59.10
23233;DHT22;11785;49.500;8.288;2023-04-24T11:25:05;14.90;59.00
23233;DHT22;11785;49.500;8.288;2023-04-24T11:27:41;15.30;58.80
23233;DHT22;11785;49.500;8.288;2023-04-24T11:30:08;15.30;58.70
23233;DHT22;11785;49.500;8.288;2023-04-24T11:35:17;15.70;58.60
23233;DHT22;11785;49.500;8.288;2023-04-24T11:37:48;15.20;58.70
23233;DHT22;11785;49.500;8.288;2023-04-24T11:40:15;14.90;58.80
23233;DHT22;11785;49.500;8.288;2023-04-24T11:42:46;14.70;58.90
23233;DHT22;11785;49.500;8.288;2023-04-24T11:45:14;14.30;58.90
23233;DHT22;11785;49.500;8.288;2023-04-24T11:47:41;14.40;58.90
23233;DHT22;11785;49.500;8.288;2023-04-24T11:50:10;14.40;58.90
23233;DHT22;11785;49.500;8.288;2023-04-24T11:52:41;14.20;59.00
23233;DHT22;11785;49.500;8.288;2023-04-24T11:57:33;14.60;58.90
23233;DHT22;11785;49.500;8.288;2023-04-24T12:00:02;14.90;58.90
23233;DHT22;11785;49.500;8.288;2023-04-24T12:02:28;16.50;58.50
23233;DHT22;11785;49.500;8.288;2023-04-24T12:04:54;17.70;58.10
23233;DHT22;11785;49.500;8.288;2023-04-24T12:07:20;18.60;57.80
23233;DHT22;11785;49.500;8.288;2023-04-24T12:09:57;18.70;57.70
23233;DHT22;11785;49.500;8.288;2023-04-24T12:12:26;18.20;57.80
23233;DHT22;11785;49.500;8.288;2023-04-24T12:14:57;17.20;58.10
23233;DHT22;11785;49.500;8.288;2023-04-24T12:17:29;17.50;58.10
23233;DHT22;11785;49.500;8.288;2023-04-24T12:20:06;18.20;57.80
23233;DHT22;11785;49.500;8.288;2023-04-24T12:22:51;18.10;57.90
23233;DHT22;11785;49.500;8.288;2023-04-24T12:25:20;18.40;57.70
23233;DHT22;11785;49.500;8.288;2023-04-24T12:27:51;19.00;57.60
23233;DHT22;11785;49.500;8.288;2023-04-24T12:30:17;18.00;57.80
23233;DHT22;11785;49.500;8.288;2023-04-24T12:32:47;17.60;57.90
23233;DHT22;11785;49.500;8.288;2023-04-24T12:35:21;17.30;58.10
23233;DHT22;11785;49.500;8.288;2023-04-24T12:37:48;18.50;57.70
23233;DHT22;11785;49.500;8.288;2023-04-24T12:40:14;19.70;57.40
23233;DHT22;11785;49.500;8.288;2023-04-24T12:42:48;19.00;57.50
23233;DHT22;11785;49.500;8.288;2023-04-24T12:45:15;17.80;57.80
23233;DHT22;11785;49.500;8.288;2023-04-24T12:47:42;17.40;57.90
23233;DHT22;11785;49.500;8.288;2023-04-24T12:50:09;18.50;57.60
23233;DHT22;11785;49.500;8.288;2023-04-24T12:52:36;18.00;57.80
23233;DHT22;11785;49.500;8.288;2023-04-24T12:55:02;17.50;57.90
23233;DHT22;11785;49.500;8.288;2023-04-24T12:57:30;17.10;58.00
23233;DHT22;11785;49.500;8.288;2023-04-24T12:59:59;17.70;57.90
23233;DHT22;11785;49.500;8.288;2023-04-24T13:02:26;19.70;57.30
23233;DHT22;11785;49.500;8.288;2023-04-24T13:04:52;20.70;57.00
23233;DHT22;11785;49.500;8.288;2023-04-24T13:07:18;20.80;56.90
23233;DHT22;11785;49.500;8.288;2023-04-24T13:09:44;19.70;57.20
23233;DHT22;11785;49.500;8.288;2023-04-24T13:12:11;18.50;57.50
23233;DHT22;11785;49.500;8.288;2023-04-24T13:14:37;17.90;57.70
23233;DHT22;11785;49.500;8.288;2023-04-24T13:17:03;17.30;57.80
23233;DHT22;11785;49.500;8.288;2023-04-24T13:19:29;17.80;57.70
23233;DHT22;11785;49.500;8.288;2023-04-24T13:21:56;17.50;57.70
23233;DHT22;11785;49.500;8.288;2023-04-24T13:24:23;17.60;57.70
23233;DHT22;11785;49.500;8.288;2023-04-24T13:26:52;17.30;57.80
23233;DHT22;11785;49.500;8.288;2023-04-24T13:29:18;17.60;57.70
23233;DHT22;11785;49.500;8.288;2023-04-24T13:31:44;17.80;57.70
23233;DHT22;11785;49.500;8.288;2023-04-24T13:34:09;17.50;57.70
23233;DHT22;11785;49.500;8.288;2023-04-24T13:36:35;17.50;57.70
23233;DHT22;11785;49.500;8.288;2023-04-24T13:39:02;17.30;57.70
23233;DHT22;11785;49.500;8.288;2023-04-24T13:41:29;16.80;57.90
23233;DHT22;11785;49.500;8.288;2023-04-24T13:43:55;16.00;58.00
23233;DHT22;11785;49.500;8.288;2023-04-24T13:46:21;15.60;58.20
23233;DHT22;11785;49.500;8.288;2023-04-24T13:48:46;15.30;58.30
23233;DHT22;11785;49.500;8.288;2023-04-24T13:51:12;15.10;58.30
23233;DHT22;11785;49.500;8.288;2023-04-24T13:53:37;14.90;58.40
23233;DHT22;11785;49.500;8.288;2023-04-24T13:56:04;14.70;58.50
23233;DHT22;11785;49.500;8.288;2023-04-24T13:58:31;14.70;58.50
23233;DHT22;11785;49.500;8.288;2023-04-24T14:00:57;14.70;58.50
23233;DHT22;11785;49.500;8.288;2023-04-24T14:03:23;14.80;58.50
23233;DHT22;11785;49.500;8.288;2023-04-24T14:05:48;14.80;58.50
23233;DHT22;11785;49.500;8.288;2023-04-24T14:08:14;14.90;58.50
23233;DHT22;11785;49.500;8.288;2023-04-24T14:10:39;15.20;58.40
23233;DHT22;11785;49.500;8.288;2023-04-24T14:13:05;16.20;58.20
23233;DHT22;11785;49.500;8.288;2023-04-24T14:15:31;17.30;57.80
23233;DHT22;11785;49.500;8.288;2023-04-24T14:17:57;17.60;57.70
23233;DHT22;11785;49.500;8.288;2023-04-24T14:20:23;19.40;57.30
23233;DHT22;11785;49.500;8.288;2023-04-24T14:22:48;22.10;56.60
23233;DHT22;11785;49.500;8.288;2023-04-24T14:25:14;23.60;56.20
23233;DHT22;11785;49.500;8.288;2023-04-24T14:27:40;25.00;52.10
23233;DHT22;11785;49.500;8.288;2023-04-24T14:30:07;24.90;55.70
23233;DHT22;11785;49.500;8.288;2023-04-24T14:32:32;24.10;55.80
23233;DHT22;11785;49.500;8.288;2023-04-24T14:34:58;21.60;56.40
23233;DHT22;11785;49.500;8.288;2023-04-24T14:37:24;19.80;56.90
23233;DHT22;11785;49.500;8.288;2023-04-24T14:39:49;17.90;57.50
23233;DHT22;11785;49.500;8.288;2023-04-24T14:42:15;16.90;57.80
23233;DHT22;11785;49.500;8.288;2023-04-24T14:44:42;16.40;58.00
23233;DHT22;11785;49.500;8.288;2023-04-24T14:47:08;15.90;58.20
23233;DHT22;11785;49.500;8.288;2023-04-24T14:49:33;15.30;58.30
23233;DHT22;11785;49.500;8.288;2023-04-24T14:51:59;14.80;58.50
23233;DHT22;11785;49.500;8.288;2023-04-24T14:54:25;14.30;58.80
23233;DHT22;11785;49.500;8.288;2023-04-24T14:56:51;13.90;59.00
23233;DHT22;11785;49.500;8.288;2023-04-24T14:59:16;13.60;59.10
23233;DHT22;11785;49.500;8.288;2023-04-24T15:01:42;13.40;59.20
23233;DHT22;11785;49.500;8.288;2023-04-24T15:04:07;13.10;59.40
23233;DHT22;11785;49.500;8.288;2023-04-24T15:06:33;12.70;59.50
23233;DHT22;11785;49.500;8.288;2023-04-24T15:08:59;12.50;59.60
23233;DHT22;11785;49.500;8.288;2023-04-24T15:11:25;12.90;59.70
23233;DHT22;11785;49.500;8.288;2023-04-24T15:13:50;13.30;59.50
23233;DHT22;11785;49.500;8.288;2023-04-24T15:16:16;13.60;59.40
23233;DHT22;11785;49.500;8.288;2023-04-24T15:18:42;14.10;59.20
23233;DHT22;11785;49.500;8.288;2023-04-24T15:21:07;14.70;58.90
23233;DHT22;11785;49.500;8.288;2023-04-24T15:23:33;14.80;58.90
23233;DHT22;11785;49.500;8.288;2023-04-24T15:25:58;14.80;58.80
23233;DHT22;11785;49.500;8.288;2023-04-24T15:28:25;14.80;58.80
23233;DHT22;11785;49.500;8.288;2023-04-24T15:30:50;15.00;58.80
23233;DHT22;11785;49.500;8.288;2023-04-24T15:33:16;14.90;58.70
23233;DHT22;11785;49.500;8.288;2023-04-24T15:35:41;14.70;58.80
23233;DHT22;11785;49.500;8.288;2023-04-24T15:38:07;14.40;58.80
23233;DHT22;11785;49.500;8.288;2023-04-24T15:40:33;14.10;58.90
23233;DHT22;11785;49.500;8.288;2023-04-24T15:42:59;13.90;59.00
23233;DHT22;11785;49.500;8.288;2023-04-24T15:45:25;13.70;59.00